createdAt,value
2023-02-25T00:01:08.369Z,2.79
2023-02-25T00:06:13.922Z,2.82
2023-02-25T00:11:20.645Z,3.12
2023-02-25T00:16:25.179Z,2.99
2023-02-25T00:21:29.584Z,2.82
2023-02-25T00:26:35.219Z,2.84
2023-02-25T00:31:38.759Z,3.04
2023-02-25T00:36:42.164Z,2.91
2023-02-25T00:41:47.040Z,2.87
2023-02-25T00:46:50.139Z,2.97
2023-02-25T00:51:53.604Z,2.95
2023-02-25T00:56:58.200Z,2.84
2023-02-25T01:02:01.398Z,2.93
2023-02-25T01:07:04.606Z,2.86
2023-02-25T01:12:10.247Z,2.83
2023-02-25T01:17:13.460Z,2.96
2023-02-25T01:22:16.793Z,2.87
2023-02-25T01:27:21.316Z,3.03
2023-02-25T01:32:25.731Z,3.04
2023-02-25T01:37:29.341Z,3.09
2023-02-25T01:42:33.936Z,3.00
2023-02-25T01:47:39.764Z,2.75
2023-02-25T01:52:45.038Z,2.77
2023-02-25T01:57:52.256Z,2.90
2023-02-25T02:02:57.603Z,2.89
2023-02-25T02:08:02.085Z,2.89
2023-02-25T02:13:06.956Z,2.79
2023-02-25T02:18:11.413Z,2.80
2023-02-25T02:23:41.165Z,2.61
2023-02-25T02:29:23.781Z,2.59
2023-02-25T02:34:39.445Z,2.61
2023-02-25T02:39:54.590Z,2.61
2023-02-25T02:45:02.730Z,2.61
2023-02-25T02:50:13.131Z,2.52
2023-02-25T02:55:22.600Z,2.52
2023-02-25T03:00:35.516Z,2.78
2023-02-25T03:05:43.248Z,2.87
2023-02-25T03:10:46.588Z,2.75
2023-02-25T03:15:53.152Z,2.69
2023-02-25T03:20:59.965Z,2.61
2023-02-25T03:26:13.612Z,2.61
2023-02-25T03:31:22.563Z,2.79
2023-02-25T03:36:31.773Z,2.78
2023-02-25T03:41:39.531Z,2.84
2023-02-25T03:46:45.327Z,2.86
2023-02-25T03:51:52.143Z,2.64
2023-02-25T03:56:55.676Z,2.79
2023-02-25T04:02:01.462Z,2.73
2023-02-25T04:07:06.333Z,2.83
2023-02-25T04:12:09.809Z,2.86
2023-02-25T04:17:13.084Z,2.78
2023-02-25T04:22:18.852Z,2.78
2023-02-25T04:27:22.255Z,2.84
2023-02-25T04:32:26.689Z,2.85
2023-02-25T04:37:31.654Z,2.72
2023-02-25T04:42:34.927Z,2.82
2023-02-25T04:47:38.269Z,2.56
2023-02-25T04:52:42.977Z,2.75
2023-02-25T04:57:46.414Z,2.94
2023-02-25T05:02:49.800Z,3.01
2023-02-25T05:07:54.653Z,2.74
2023-02-25T05:12:57.956Z,2.86
2023-02-25T05:18:01.221Z,2.91
2023-02-25T05:23:05.874Z,2.88
2023-02-25T05:28:09.417Z,2.76
2023-02-25T05:33:13.627Z,2.56
2023-02-25T05:38:18.292Z,2.91
2023-02-25T05:43:21.630Z,2.89
2023-02-25T05:48:25.311Z,2.65
2023-02-25T05:53:29.932Z,2.49
2023-02-25T05:58:33.969Z,2.82
2023-02-25T06:03:37.625Z,2.67
2023-02-25T06:08:44.430Z,2.51
2023-02-25T06:13:49.861Z,2.19
2023-02-25T06:18:53.686Z,1.77
2023-02-25T06:23:58.595Z,2.12
2023-02-25T06:29:02.414Z,2.07
2023-02-25T06:34:06.121Z,2.23
2023-02-25T06:39:11.799Z,2.06
2023-02-25T06:44:15.901Z,2.33
2023-02-25T06:49:19.905Z,2.48
2023-02-25T06:54:25.519Z,2.30
2023-02-25T06:59:29.551Z,2.62
2023-02-25T07:04:32.946Z,2.65
2023-02-25T07:09:37.508Z,2.49
2023-02-25T07:14:40.755Z,2.56
2023-02-25T07:19:44.060Z,2.50
2023-02-25T07:24:50.312Z,2.60
2023-02-25T07:29:54.956Z,2.90
2023-02-25T07:34:58.180Z,2.88
2023-02-25T07:40:03.249Z,3.07
2023-02-25T07:45:07.768Z,3.30
2023-02-25T07:50:13.191Z,3.32
2023-02-25T07:55:19.405Z,3.68
2023-02-25T08:00:23.025Z,3.47
2023-02-25T08:05:26.383Z,3.43
2023-02-25T08:10:31.179Z,3.55
2023-02-25T08:15:34.386Z,3.62
2023-02-25T08:20:37.773Z,3.53
2023-02-25T08:25:42.823Z,3.53
2023-02-25T08:30:46.887Z,3.32
2023-02-25T08:35:50.037Z,3.43
2023-02-25T08:40:54.806Z,3.31
2023-02-25T08:45:58.462Z,3.40
2023-02-25T08:51:04.250Z,2.90
2023-02-25T08:56:11.104Z,2.60
2023-02-25T09:01:16.315Z,1.88
2023-02-25T09:06:20.723Z,1.54
2023-02-25T09:11:27.412Z,1.37
2023-02-25T09:16:31.894Z,1.75
2023-02-25T09:21:36.154Z,1.89
2023-02-25T09:26:41.114Z,2.64
2023-02-25T09:31:44.658Z,2.71
2023-02-25T09:36:48.143Z,2.56
2023-02-25T09:41:57.126Z,2.92
2023-02-25T09:47:04.786Z,3.32
2023-02-25T09:52:17.011Z,2.96
2023-02-25T09:57:23.594Z,2.98
2023-02-25T10:02:36.365Z,2.90
2023-02-25T10:07:49.990Z,3.22
2023-02-25T10:13:03.848Z,3.04
2023-02-25T10:18:22.014Z,3.37
2023-02-25T10:23:41.950Z,3.41
2023-02-25T10:28:51.731Z,3.21
2023-02-25T10:33:56.348Z,3.61
2023-02-25T10:38:59.586Z,3.27
2023-02-25T10:44:04.318Z,3.69
2023-02-25T10:49:16.833Z,3.91
2023-02-25T10:54:25.010Z,3.28
2023-02-25T10:59:33.496Z,2.91
2023-02-25T11:04:40.091Z,2.93
2023-02-25T11:09:43.510Z,2.96
2023-02-25T11:14:48.374Z,3.46
2023-02-25T11:19:59.553Z,3.16
2023-02-25T11:25:06.062Z,3.15
2023-02-25T11:30:21.209Z,3.29
2023-02-25T11:35:30.765Z,3.10
2023-02-25T11:40:42.411Z,3.15
2023-02-25T11:45:54.961Z,2.93
2023-02-25T11:51:10.864Z,2.11
2023-02-25T11:56:24.708Z,1.57
2023-02-25T12:01:43.670Z,2.04
2023-02-25T12:07:13.795Z,2.74
2023-02-25T12:12:41.714Z,2.96
2023-02-25T12:18:19.390Z,3.76
2023-02-25T12:23:56.181Z,4.03
2023-02-25T12:29:08.456Z,3.97
2023-02-25T12:34:46.922Z,3.56
2023-02-25T12:40:23.538Z,3.12
2023-02-25T12:45:40.390Z,3.51
2023-02-25T12:51:04.570Z,4.03
2023-02-25T12:56:39.098Z,3.69
2023-02-25T13:02:20.030Z,3.84
2023-02-25T13:07:45.496Z,4.01
2023-02-25T13:13:07.665Z,3.58
2023-02-25T13:18:19.536Z,3.44
2023-02-25T13:24:04.977Z,3.62
2023-02-25T13:29:27.619Z,3.77
2023-02-25T13:34:40.261Z,3.42
2023-02-25T13:40:02.024Z,3.47
2023-02-25T13:45:37.121Z,2.92
2023-02-25T13:51:10.521Z,3.20
2023-02-25T13:56:45.030Z,2.62
2023-02-25T14:02:00.984Z,3.08
2023-02-25T14:07:21.314Z,2.77
2023-02-25T14:12:45.582Z,2.12
2023-02-25T14:18:03.545Z,2.06
2023-02-25T14:23:13.978Z,1.85
2023-02-25T14:28:27.118Z,2.28
2023-02-25T14:33:53.336Z,2.45
2023-02-25T14:39:14.399Z,2.35
2023-02-25T14:44:25.824Z,2.61
2023-02-25T14:49:36.462Z,2.18
2023-02-25T14:55:27.771Z,1.80
2023-02-25T15:00:55.605Z,1.71
2023-02-25T15:06:14.895Z,1.89
2023-02-25T15:11:32.577Z,1.53
2023-02-25T15:17:00.817Z,1.68
2023-02-25T15:22:20.890Z,1.39
2023-02-25T15:27:51.559Z,0.64
2023-02-25T15:33:08.730Z,0.19
2023-02-25T15:38:21.016Z,-0.09
2023-02-25T15:43:45.994Z,0.13
2023-02-25T15:49:05.931Z,0.23
2023-02-25T15:54:12.220Z,0.45
2023-02-25T15:59:43.939Z,0.58
2023-02-25T16:04:50.316Z,0.55
2023-02-25T16:09:59.840Z,0.51
2023-02-25T16:15:04.032Z,0.64
2023-02-25T16:20:17.705Z,0.38
2023-02-25T16:25:30.816Z,0.34
2023-02-25T16:30:41.603Z,0.39
2023-02-25T16:35:55.415Z,0.43
2023-02-25T16:41:05.061Z,0.44
2023-02-25T16:46:12.919Z,0.41
2023-02-25T16:51:24.309Z,0.44
2023-02-25T16:56:32.202Z,0.57
2023-02-25T17:01:37.893Z,0.46
2023-02-25T17:06:41.612Z,0.32
2023-02-25T17:11:54.968Z,0.18
2023-02-25T17:17:00.268Z,0.27
2023-02-25T17:22:05.425Z,-0.01
2023-02-25T17:27:12.836Z,-0.18
2023-02-25T17:32:25.121Z,-0.24
2023-02-25T17:37:30.852Z,-0.44
2023-02-25T17:42:39.279Z,-0.76
2023-02-25T17:47:45.423Z,-0.57
2023-02-25T17:52:49.989Z,-0.56
2023-02-25T17:57:59.792Z,-0.37
2023-02-25T18:03:18.698Z,-0.57
2023-02-25T18:08:29.723Z,-0.42
2023-02-25T18:13:37.278Z,-0.42
2023-02-25T18:18:41.824Z,-0.45
2023-02-25T18:23:46.268Z,-0.36
2023-02-25T18:28:51.433Z,-0.21
2023-02-25T18:33:55.135Z,-0.38
2023-02-25T18:39:04.622Z,-0.22
2023-02-25T18:44:14.122Z,-0.26
2023-02-25T18:49:17.629Z,-0.15
2023-02-25T18:54:22.172Z,-0.53
2023-02-25T18:59:27.054Z,-0.36
2023-02-25T19:04:30.768Z,-0.54
2023-02-25T19:09:34.516Z,-0.58
2023-02-25T19:14:40.603Z,-0.44
2023-02-25T19:19:47.100Z,-0.61
2023-02-25T19:24:51.249Z,-0.50
2023-02-25T19:29:58.329Z,-0.57
2023-02-25T19:35:04.501Z,-0.68
2023-02-25T19:40:11.437Z,-0.88
2023-02-25T19:45:19.086Z,-0.87
2023-02-25T19:50:24.922Z,-0.90
2023-02-25T19:55:28.917Z,-0.97
2023-02-25T20:00:34.301Z,-0.99
2023-02-25T20:05:37.793Z,-0.94
2023-02-25T20:10:44.014Z,-0.89
2023-02-25T20:15:48.696Z,-0.74
2023-02-25T20:20:51.943Z,-0.56
2023-02-25T20:26:04.096Z,-0.63
2023-02-25T20:31:11.109Z,-0.50
2023-02-25T20:36:22.436Z,-0.73
2023-02-25T20:41:26.270Z,-0.56
2023-02-25T20:46:31.481Z,-0.61
2023-02-25T20:51:35.829Z,-0.60
2023-02-25T20:56:39.885Z,-0.48
2023-02-25T21:01:45.533Z,-0.58
2023-02-25T21:06:49.832Z,-0.56
2023-02-25T21:11:53.357Z,-0.70
2023-02-25T21:16:59.031Z,-0.74
2023-02-25T21:22:02.776Z,-0.82
2023-02-25T21:27:06.413Z,-0.79
2023-02-25T21:32:11.902Z,-0.61
2023-02-25T21:37:15.782Z,-0.73
2023-02-25T21:42:19.626Z,-0.71
2023-02-25T21:47:25.033Z,-0.84
2023-02-25T21:52:28.974Z,-1.03
2023-02-25T21:57:33.401Z,-1.12
2023-02-25T22:02:38.996Z,-0.84
2023-02-25T22:07:42.981Z,-0.84
2023-02-25T22:12:46.896Z,-0.88
2023-02-25T22:17:52.578Z,-0.99
2023-02-25T22:22:58.257Z,-0.89
2023-02-25T22:28:04.376Z,-0.93
2023-02-25T22:33:09.936Z,-0.83
2023-02-25T22:38:13.164Z,-0.66
2023-02-25T22:43:16.432Z,-0.93
2023-02-25T22:48:21.453Z,-0.65
2023-02-25T22:53:24.951Z,-0.55
2023-02-25T22:58:28.124Z,-0.47
2023-02-25T23:03:32.970Z,-0.71
2023-02-25T23:08:36.738Z,-0.59
2023-02-25T23:13:46.148Z,-0.57
2023-02-25T23:18:52.674Z,-0.57
2023-02-25T23:23:58.252Z,-0.53
2023-02-25T23:29:03.702Z,-0.51
2023-02-25T23:34:10.085Z,-0.75
2023-02-25T23:39:15.243Z,-0.87
2023-02-25T23:44:19.185Z,-0.78
2023-02-25T23:49:24.080Z,-0.69
2023-02-25T23:54:27.420Z,-0.74
2023-02-25T23:59:30.624Z,-1.13
